sensor_id;sensor_type;location;lat;lon;timestamp;P1;durP1;ratioP1;P2;durP2;ratioP2
16969;SDS011;8601;48.718;8.992;2023-04-25T00:01:26;2.33;;;2.10;;
16969;SDS011;8601;48.718;8.992;2023-04-25T00:03:53;2.43;;;2.27;;
16969;SDS011;8601;48.718;8.992;2023-04-25T00:06:20;2.60;;;2.13;;
16969;SDS011;8601;48.718;8.992;2023-04-25T00:08:52;2.50;;;2.20;;
16969;SDS011;8601;48.718;8.992;2023-04-25T00:11:20;2.50;;;2.30;;
16969;SDS011;8601;48.718;8.992;2023-04-25T00:13:47;2.60;;;2.40;;
16969;SDS011;8601;48.718;8.992;2023-04-25T00:16:14;2.20;;;2.00;;
16969;SDS011;8601;48.718;8.992;2023-04-25T00:18:41;3.27;;;2.23;;
16969;SDS011;8601;48.718;8.992;2023-04-25T00:21:08;2.50;;;2.30;;
16969;SDS011;8601;48.718;8.992;2023-04-25T00:23:36;3.47;;;2.27;;
16969;SDS011;8601;48.718;8.992;2023-04-25T00:26:05;3.30;;;2.43;;
16969;SDS011;8601;48.718;8.992;2023-04-25T00:28:32;2.70;;;2.50;;
16969;SDS011;8601;48.718;8.992;2023-04-25T00:30:59;3.53;;;2.50;;
16969;SDS011;8601;48.718;8.992;2023-04-25T00:33:26;3.17;;;2.87;;
16969;SDS011;8601;48.718;8.992;2023-04-25T00:35:53;3.40;;;2.67;;
16969;SDS011;8601;48.718;8.992;2023-04-25T00:38:20;3.17;;;2.97;;
16969;SDS011;8601;48.718;8.992;2023-04-25T00:40:48;2.83;;;2.60;;
16969;SDS011;8601;48.718;8.992;2023-04-25T00:43:17;4.13;;;2.70;;
16969;SDS011;8601;48.718;8.992;2023-04-25T00:45:43;3.23;;;2.93;;
16969;SDS011;8601;48.718;8.992;2023-04-25T00:48:13;2.67;;;2.47;;
16969;SDS011;8601;48.718;8.992;2023-04-25T00:50:40;2.85;;;2.60;;
16969;SDS011;8601;48.718;8.992;2023-04-25T00:53:08;3.07;;;2.50;;
16969;SDS011;8601;48.718;8.992;2023-04-25T00:55:35;3.20;;;2.90;;
16969;SDS011;8601;48.718;8.992;2023-04-25T00:58:02;2.53;;;2.33;;
16969;SDS011;8601;48.718;8.992;2023-04-25T01:00:31;3.23;;;2.93;;
16969;SDS011;8601;48.718;8.992;2023-04-25T01:02:58;2.73;;;2.50;;
16969;SDS011;8601;48.718;8.992;2023-04-25T01:05:27;3.10;;;2.80;;
16969;SDS011;8601;48.718;8.992;2023-04-25T01:07:54;2.70;;;2.50;;
16969;SDS011;8601;48.718;8.992;2023-04-25T01:10:21;3.97;;;2.60;;
16969;SDS011;8601;48.718;8.992;2023-04-25T01:12:48;3.13;;;2.77;;
16969;SDS011;8601;48.718;8.992;2023-04-25T01:15:15;4.80;;;2.77;;
16969;SDS011;8601;48.718;8.992;2023-04-25T01:17:46;2.93;;;2.70;;
16969;SDS011;8601;48.718;8.992;2023-04-25T01:20:14;3.10;;;2.70;;
16969;SDS011;8601;48.718;8.992;2023-04-25T01:22:43;2.90;;;2.60;;
16969;SDS011;8601;48.718;8.992;2023-04-25T01:25:10;2.83;;;2.63;;
16969;SDS011;8601;48.718;8.992;2023-04-25T01:27:37;3.30;;;2.90;;
16969;SDS011;8601;48.718;8.992;2023-04-25T01:30:05;2.70;;;2.50;;
16969;SDS011;8601;48.718;8.992;2023-04-25T01:32:33;2.80;;;2.60;;
16969;SDS011;8601;48.718;8.992;2023-04-25T01:35:03;3.23;;;2.90;;
16969;SDS011;8601;48.718;8.992;2023-04-25T01:37:34;4.30;;;2.70;;
16969;SDS011;8601;48.718;8.992;2023-04-25T01:40:03;3.53;;;2.93;;
16969;SDS011;8601;48.718;8.992;2023-04-25T01:42:31;2.93;;;2.73;;
16969;SDS011;8601;48.718;8.992;2023-04-25T01:44:58;3.13;;;2.83;;
16969;SDS011;8601;48.718;8.992;2023-04-25T01:47:25;3.17;;;2.93;;
16969;SDS011;8601;48.718;8.992;2023-04-25T01:49:52;3.57;;;2.77;;
16969;SDS011;8601;48.718;8.992;2023-04-25T01:52:19;3.10;;;2.80;;
16969;SDS011;8601;48.718;8.992;2023-04-25T01:54:46;3.73;;;2.90;;
16969;SDS011;8601;48.718;8.992;2023-04-25T01:57:15;3.03;;;2.50;;
16969;SDS011;8601;48.718;8.992;2023-04-25T01:59:42;3.20;;;2.90;;
16969;SDS011;8601;48.718;8.992;2023-04-25T02:02:10;3.43;;;2.50;;
16969;SDS011;8601;48.718;8.992;2023-04-25T02:04:37;2.73;;;2.53;;
16969;SDS011;8601;48.718;8.992;2023-04-25T02:07:04;3.03;;;2.50;;
16969;SDS011;8601;48.718;8.992;2023-04-25T02:09:31;7.33;;;4.10;;
16969;SDS011;8601;48.718;8.992;2023-04-25T02:11:58;2.70;;;2.50;;
16969;SDS011;8601;48.718;8.992;2023-04-25T02:14:29;2.80;;;2.60;;
16969;SDS011;8601;48.718;8.992;2023-04-25T02:16:56;2.73;;;2.53;;
16969;SDS011;8601;48.718;8.992;2023-04-25T02:19:23;4.93;;;2.80;;
16969;SDS011;8601;48.718;8.992;2023-04-25T02:21:50;2.47;;;2.27;;
16969;SDS011;8601;48.718;8.992;2023-04-25T02:24:17;2.63;;;2.43;;
16969;SDS011;8601;48.718;8.992;2023-04-25T02:26:44;2.83;;;2.50;;
16969;SDS011;8601;48.718;8.992;2023-04-25T02:29:12;3.53;;;2.20;;
16969;SDS011;8601;48.718;8.992;2023-04-25T02:31:41;2.70;;;2.50;;
16969;SDS011;8601;48.718;8.992;2023-04-25T02:34:08;4.30;;;2.53;;
16969;SDS011;8601;48.718;8.992;2023-04-25T02:36:35;2.47;;;2.10;;
16969;SDS011;8601;48.718;8.992;2023-04-25T02:39:02;2.60;;;2.40;;
16969;SDS011;8601;48.718;8.992;2023-04-25T02:41:30;2.40;;;2.20;;
16969;SDS011;8601;48.718;8.992;2023-04-25T02:43:57;3.03;;;2.50;;
16969;SDS011;8601;48.718;8.992;2023-04-25T02:46:23;3.00;;;2.40;;
16969;SDS011;8601;48.718;8.992;2023-04-25T02:48:52;2.67;;;2.30;;
16969;SDS011;8601;48.718;8.992;2023-04-25T02:51:20;4.23;;;3.00;;
16969;SDS011;8601;48.718;8.992;2023-04-25T02:53:47;2.73;;;2.50;;
16969;SDS011;8601;48.718;8.992;2023-04-25T02:56:14;3.10;;;2.80;;
16969;SDS011;8601;48.718;8.992;2023-04-25T02:58:41;2.83;;;2.03;;
16969;SDS011;8601;48.718;8.992;2023-04-25T03:01:08;2.60;;;2.40;;
16969;SDS011;8601;48.718;8.992;2023-04-25T03:03:35;3.13;;;2.47;;
16969;SDS011;8601;48.718;8.992;2023-04-25T03:06:03;2.90;;;2.33;;
16969;SDS011;8601;48.718;8.992;2023-04-25T03:08:31;2.50;;;2.30;;
16969;SDS011;8601;48.718;8.992;2023-04-25T03:10:59;3.70;;;2.80;;
16969;SDS011;8601;48.718;8.992;2023-04-25T03:13:26;2.60;;;2.40;;
16969;SDS011;8601;48.718;8.992;2023-04-25T03:15:54;2.70;;;2.50;;
16969;SDS011;8601;48.718;8.992;2023-04-25T03:18:21;3.37;;;2.53;;
16969;SDS011;8601;48.718;8.992;2023-04-25T03:20:48;2.90;;;2.57;;
16969;SDS011;8601;48.718;8.992;2023-04-25T03:23:16;4.80;;;2.80;;
16969;SDS011;8601;48.718;8.992;2023-04-25T03:25:43;2.50;;;2.30;;
16969;SDS011;8601;48.718;8.992;2023-04-25T03:28:10;3.13;;;2.40;;
16969;SDS011;8601;48.718;8.992;2023-04-25T03:30:37;2.87;;;2.67;;
16969;SDS011;8601;48.718;8.992;2023-04-25T03:33:04;2.83;;;2.30;;
16969;SDS011;8601;48.718;8.992;2023-04-25T03:35:31;3.03;;;2.63;;
16969;SDS011;8601;48.718;8.992;2023-04-25T03:37:58;4.13;;;2.70;;
16969;SDS011;8601;48.718;8.992;2023-04-25T03:40:27;3.93;;;2.60;;
16969;SDS011;8601;48.718;8.992;2023-04-25T03:42:55;2.97;;;2.70;;
16969;SDS011;8601;48.718;8.992;2023-04-25T03:45:21;3.63;;;2.60;;
16969;SDS011;8601;48.718;8.992;2023-04-25T03:47:49;4.10;;;2.90;;
16969;SDS011;8601;48.718;8.992;2023-04-25T03:50:15;3.23;;;2.70;;
16969;SDS011;8601;48.718;8.992;2023-04-25T03:52:42;7.47;;;2.70;;
16969;SDS011;8601;48.718;8.992;2023-04-25T03:55:10;3.27;;;2.67;;
16969;SDS011;8601;48.718;8.992;2023-04-25T03:57:38;2.80;;;2.60;;
16969;SDS011;8601;48.718;8.992;2023-04-25T04:00:06;3.20;;;2.67;;
16969;SDS011;8601;48.718;8.992;2023-04-25T04:02:34;3.50;;;2.87;;
16969;SDS011;8601;48.718;8.992;2023-04-25T04:05:03;4.00;;;2.80;;
16969;SDS011;8601;48.718;8.992;2023-04-25T04:07:31;3.57;;;2.80;;
16969;SDS011;8601;48.718;8.992;2023-04-25T04:10:01;3.97;;;2.67;;
16969;SDS011;8601;48.718;8.992;2023-04-25T04:12:31;3.47;;;2.73;;
16969;SDS011;8601;48.718;8.992;2023-04-25T04:14:59;2.70;;;2.50;;
16969;SDS011;8601;48.718;8.992;2023-04-25T04:17:26;3.50;;;3.20;;
16969;SDS011;8601;48.718;8.992;2023-04-25T04:19:53;4.47;;;3.50;;
16969;SDS011;8601;48.718;8.992;2023-04-25T04:22:21;5.07;;;2.90;;
16969;SDS011;8601;48.718;8.992;2023-04-25T04:24:48;4.23;;;2.90;;
16969;SDS011;8601;48.718;8.992;2023-04-25T04:27:16;3.80;;;2.80;;
16969;SDS011;8601;48.718;8.992;2023-04-25T04:29:44;4.17;;;3.40;;
16969;SDS011;8601;48.718;8.992;2023-04-25T04:32:13;4.07;;;2.90;;
16969;SDS011;8601;48.718;8.992;2023-04-25T04:34:40;3.17;;;2.87;;
16969;SDS011;8601;48.718;8.992;2023-04-25T04:37:07;6.43;;;3.50;;
16969;SDS011;8601;48.718;8.992;2023-04-25T04:39:34;5.47;;;2.97;;
16969;SDS011;8601;48.718;8.992;2023-04-25T04:42:01;4.17;;;3.23;;
16969;SDS011;8601;48.718;8.992;2023-04-25T04:44:30;4.33;;;3.37;;
16969;SDS011;8601;48.718;8.992;2023-04-25T04:46:59;2.97;;;2.77;;
16969;SDS011;8601;48.718;8.992;2023-04-25T04:49:28;5.43;;;3.13;;
16969;SDS011;8601;48.718;8.992;2023-04-25T04:51:55;4.27;;;3.50;;
16969;SDS011;8601;48.718;8.992;2023-04-25T04:54:22;5.97;;;3.03;;
16969;SDS011;8601;48.718;8.992;2023-04-25T04:56:48;3.77;;;3.07;;
16969;SDS011;8601;48.718;8.992;2023-04-25T04:59:17;3.63;;;3.33;;
16969;SDS011;8601;48.718;8.992;2023-04-25T05:01:44;3.60;;;2.97;;
16969;SDS011;8601;48.718;8.992;2023-04-25T05:04:12;4.77;;;3.20;;
16969;SDS011;8601;48.718;8.992;2023-04-25T05:06:40;3.57;;;3.20;;
16969;SDS011;8601;48.718;8.992;2023-04-25T05:09:08;4.37;;;3.80;;
16969;SDS011;8601;48.718;8.992;2023-04-25T05:11:35;4.67;;;3.00;;
16969;SDS011;8601;48.718;8.992;2023-04-25T05:14:02;3.70;;;3.40;;
16969;SDS011;8601;48.718;8.992;2023-04-25T05:16:28;6.17;;;3.23;;
16969;SDS011;8601;48.718;8.992;2023-04-25T05:18:55;5.93;;;3.97;;
16969;SDS011;8601;48.718;8.992;2023-04-25T05:21:22;5.03;;;3.70;;
16969;SDS011;8601;48.718;8.992;2023-04-25T05:23:51;4.13;;;3.70;;
16969;SDS011;8601;48.718;8.992;2023-04-25T05:26:18;4.70;;;4.20;;
16969;SDS011;8601;48.718;8.992;2023-04-25T05:28:45;7.70;;;4.57;;
16969;SDS011;8601;48.718;8.992;2023-04-25T05:31:12;5.47;;;4.13;;
16969;SDS011;8601;48.718;8.992;2023-04-25T05:33:39;4.23;;;3.83;;
16969;SDS011;8601;48.718;8.992;2023-04-25T05:36:06;5.10;;;4.20;;
16969;SDS011;8601;48.718;8.992;2023-04-25T05:38:34;4.40;;;4.00;;
16969;SDS011;8601;48.718;8.992;2023-04-25T05:41:02;5.47;;;4.00;;
16969;SDS011;8601;48.718;8.992;2023-04-25T05:43:29;4.67;;;4.20;;
16969;SDS011;8601;48.718;8.992;2023-04-25T05:45:56;5.30;;;3.93;;
16969;SDS011;8601;48.718;8.992;2023-04-25T05:48:23;4.17;;;3.33;;
16969;SDS011;8601;48.718;8.992;2023-04-25T05:50:51;7.23;;;3.73;;
16969;SDS011;8601;48.718;8.992;2023-04-25T05:53:18;4.67;;;4.17;;
16969;SDS011;8601;48.718;8.992;2023-04-25T05:55:45;6.50;;;3.87;;
16969;SDS011;8601;48.718;8.992;2023-04-25T05:58:14;5.07;;;3.73;;
16969;SDS011;8601;48.718;8.992;2023-04-25T06:00:41;6.53;;;4.60;;
16969;SDS011;8601;48.718;8.992;2023-04-25T06:03:08;7.00;;;4.43;;
16969;SDS011;8601;48.718;8.992;2023-04-25T06:05:35;4.33;;;3.93;;
16969;SDS011;8601;48.718;8.992;2023-04-25T06:08:02;5.20;;;3.90;;
16969;SDS011;8601;48.718;8.992;2023-04-25T06:10:30;5.67;;;4.10;;
16969;SDS011;8601;48.718;8.992;2023-04-25T06:12:57;5.13;;;4.20;;
16969;SDS011;8601;48.718;8.992;2023-04-25T06:15:26;5.20;;;4.00;;
16969;SDS011;8601;48.718;8.992;2023-04-25T06:17:54;5.53;;;4.30;;
16969;SDS011;8601;48.718;8.992;2023-04-25T06:20:22;5.67;;;4.00;;
16969;SDS011;8601;48.718;8.992;2023-04-25T06:22:49;5.87;;;4.57;;
16969;SDS011;8601;48.718;8.992;2023-04-25T06:25:16;4.27;;;3.70;;
16969;SDS011;8601;48.718;8.992;2023-04-25T06:27:43;4.70;;;4.23;;
16969;SDS011;8601;48.718;8.992;2023-04-25T06:30:10;5.13;;;4.17;;
16969;SDS011;8601;48.718;8.992;2023-04-25T06:32:39;4.47;;;4.07;;
16969;SDS011;8601;48.718;8.992;2023-04-25T06:35:06;4.83;;;4.00;;
16969;SDS011;8601;48.718;8.992;2023-04-25T06:37:34;5.47;;;4.47;;
16969;SDS011;8601;48.718;8.992;2023-04-25T06:40:01;5.23;;;4.50;;
16969;SDS011;8601;48.718;8.992;2023-04-25T06:42:28;5.57;;;4.47;;
16969;SDS011;8601;48.718;8.992;2023-04-25T06:47:24;4.63;;;4.17;;
16969;SDS011;8601;48.718;8.992;2023-04-25T06:49:53;4.30;;;3.90;;
16969;SDS011;8601;48.718;8.992;2023-04-25T06:52:20;5.07;;;4.60;;
16969;SDS011;8601;48.718;8.992;2023-04-25T06:54:55;7.43;;;5.07;;
16969;SDS011;8601;48.718;8.992;2023-04-25T06:57:22;5.57;;;4.63;;
16969;SDS011;8601;48.718;8.992;2023-04-25T06:59:49;4.80;;;4.40;;
16969;SDS011;8601;48.718;8.992;2023-04-25T07:02:16;5.23;;;4.73;;
16969;SDS011;8601;48.718;8.992;2023-04-25T07:04:44;6.13;;;4.67;;
16969;SDS011;8601;48.718;8.992;2023-04-25T07:07:12;5.70;;;4.37;;
16969;SDS011;8601;48.718;8.992;2023-04-25T07:12:10;5.00;;;4.60;;
16969;SDS011;8601;48.718;8.992;2023-04-25T07:14:37;5.60;;;5.10;;
16969;SDS011;8601;48.718;8.992;2023-04-25T07:17:04;5.67;;;5.00;;
16969;SDS011;8601;48.718;8.992;2023-04-25T07:22:04;7.47;;;6.27;;
16969;SDS011;8601;48.718;8.992;2023-04-25T07:24:32;6.73;;;6.07;;
16969;SDS011;8601;48.718;8.992;2023-04-25T07:26:59;6.13;;;5.53;;
16969;SDS011;8601;48.718;8.992;2023-04-25T07:29:27;5.67;;;5.10;;
16969;SDS011;8601;48.718;8.992;2023-04-25T07:31:55;5.67;;;5.13;;
16969;SDS011;8601;48.718;8.992;2023-04-25T07:34:22;5.93;;;4.83;;
16969;SDS011;8601;48.718;8.992;2023-04-25T07:36:49;6.60;;;4.90;;
16969;SDS011;8601;48.718;8.992;2023-04-25T07:39:16;5.87;;;5.30;;
16969;SDS011;8601;48.718;8.992;2023-04-25T07:41:45;5.33;;;4.83;;
16969;SDS011;8601;48.718;8.992;2023-04-25T07:44:12;5.40;;;4.90;;
16969;SDS011;8601;48.718;8.992;2023-04-25T07:46:39;5.83;;;5.13;;
16969;SDS011;8601;48.718;8.992;2023-04-25T07:49:06;5.40;;;4.97;;
16969;SDS011;8601;48.718;8.992;2023-04-25T07:51:34;5.43;;;4.93;;
16969;SDS011;8601;48.718;8.992;2023-04-25T07:54:00;5.10;;;4.60;;
16969;SDS011;8601;48.718;8.992;2023-04-25T07:56:28;6.03;;;4.87;;
16969;SDS011;8601;48.718;8.992;2023-04-25T07:58:56;6.67;;;4.70;;
16969;SDS011;8601;48.718;8.992;2023-04-25T08:01:23;6.53;;;4.67;;
16969;SDS011;8601;48.718;8.992;2023-04-25T08:03:50;6.63;;;5.03;;
16969;SDS011;8601;48.718;8.992;2023-04-25T08:06:17;6.07;;;5.47;;
16969;SDS011;8601;48.718;8.992;2023-04-25T08:08:44;6.53;;;5.20;;
16969;SDS011;8601;48.718;8.992;2023-04-25T08:11:11;5.30;;;4.80;;
16969;SDS011;8601;48.718;8.992;2023-04-25T08:13:38;6.27;;;5.10;;
16969;SDS011;8601;48.718;8.992;2023-04-25T08:16:06;6.43;;;5.07;;
16969;SDS011;8601;48.718;8.992;2023-04-25T08:18:35;4.63;;;4.23;;
16969;SDS011;8601;48.718;8.992;2023-04-25T08:21:02;9.47;;;5.83;;
16969;SDS011;8601;48.718;8.992;2023-04-25T08:23:29;5.50;;;5.00;;
16969;SDS011;8601;48.718;8.992;2023-04-25T08:25:56;4.60;;;4.13;;
16969;SDS011;8601;48.718;8.992;2023-04-25T08:28:26;5.37;;;4.43;;
16969;SDS011;8601;48.718;8.992;2023-04-25T08:30:53;6.97;;;5.10;;
16969;SDS011;8601;48.718;8.992;2023-04-25T08:33:22;5.33;;;4.83;;
16969;SDS011;8601;48.718;8.992;2023-04-25T08:35:50;5.07;;;4.57;;
16969;SDS011;8601;48.718;8.992;2023-04-25T08:38:17;5.47;;;4.97;;
16969;SDS011;8601;48.718;8.992;2023-04-25T08:40:44;6.40;;;5.20;;
16969;SDS011;8601;48.718;8.992;2023-04-25T08:43:17;6.60;;;5.90;;
16969;SDS011;8601;48.718;8.992;2023-04-25T08:45:46;7.27;;;5.70;;
16969;SDS011;8601;48.718;8.992;2023-04-25T08:48:14;5.80;;;5.30;;
16969;SDS011;8601;48.718;8.992;2023-04-25T08:50:45;6.40;;;5.07;;
16969;SDS011;8601;48.718;8.992;2023-04-25T08:53:17;5.97;;;5.47;;
16969;SDS011;8601;48.718;8.992;2023-04-25T08:55:48;5.57;;;5.07;;
16969;SDS011;8601;48.718;8.992;2023-04-25T08:58:15;6.03;;;5.43;;
16969;SDS011;8601;48.718;8.992;2023-04-25T09:00:45;9.97;;;6.00;;
16969;SDS011;8601;48.718;8.992;2023-04-25T09:03:12;6.10;;;5.17;;
16969;SDS011;8601;48.718;8.992;2023-04-25T09:05:40;6.43;;;5.83;;
16969;SDS011;8601;48.718;8.992;2023-04-25T09:08:14;5.57;;;5.07;;
16969;SDS011;8601;48.718;8.992;2023-04-25T09:10:42;6.13;;;5.57;;
16969;SDS011;8601;48.718;8.992;2023-04-25T09:13:09;6.40;;;5.80;;
16969;SDS011;8601;48.718;8.992;2023-04-25T09:15:49;6.33;;;5.20;;
16969;SDS011;8601;48.718;8.992;2023-04-25T09:18:26;5.57;;;5.07;;
16969;SDS011;8601;48.718;8.992;2023-04-25T09:20:55;5.60;;;5.10;;
16969;SDS011;8601;48.718;8.992;2023-04-25T09:23:24;5.40;;;4.90;;
16969;SDS011;8601;48.718;8.992;2023-04-25T09:25:52;5.40;;;4.90;;
16969;SDS011;8601;48.718;8.992;2023-04-25T09:28:22;5.90;;;4.40;;
16969;SDS011;8601;48.718;8.992;2023-04-25T09:30:54;5.30;;;4.80;;
16969;SDS011;8601;48.718;8.992;2023-04-25T09:33:26;6.33;;;5.73;;
16969;SDS011;8601;48.718;8.992;2023-04-25T09:35:56;5.53;;;5.03;;
16969;SDS011;8601;48.718;8.992;2023-04-25T09:38:31;3.90;;;3.60;;
16969;SDS011;8601;48.718;8.992;2023-04-25T09:41:05;4.13;;;3.67;;
16969;SDS011;8601;48.718;8.992;2023-04-25T09:43:32;3.60;;;3.27;;
16969;SDS011;8601;48.718;8.992;2023-04-25T09:46:00;2.40;;;2.20;;
16969;SDS011;8601;48.718;8.992;2023-04-25T09:48:27;2.30;;;2.03;;
16969;SDS011;8601;48.718;8.992;2023-04-25T09:53:37;2.30;;;2.10;;
16969;SDS011;8601;48.718;8.992;2023-04-25T09:56:06;2.90;;;2.20;;
16969;SDS011;8601;48.718;8.992;2023-04-25T09:58:35;1.73;;;1.63;;
16969;SDS011;8601;48.718;8.992;2023-04-25T10:01:04;1.90;;;1.80;;
16969;SDS011;8601;48.718;8.992;2023-04-25T10:03:34;1.90;;;1.80;;
16969;SDS011;8601;48.718;8.992;2023-04-25T10:06:09;1.80;;;1.70;;
16969;SDS011;8601;48.718;8.992;2023-04-25T10:08:40;1.70;;;1.60;;
16969;SDS011;8601;48.718;8.992;2023-04-25T10:11:08;1.70;;;1.60;;
16969;SDS011;8601;48.718;8.992;2023-04-25T10:13:35;1.80;;;1.70;;
16969;SDS011;8601;48.718;8.992;2023-04-25T10:16:03;1.50;;;1.40;;
16969;SDS011;8601;48.718;8.992;2023-04-25T10:18:31;1.57;;;1.47;;
16969;SDS011;8601;48.718;8.992;2023-04-25T10:20:59;1.47;;;1.40;;
16969;SDS011;8601;48.718;8.992;2023-04-25T10:23:27;1.40;;;1.30;;
16969;SDS011;8601;48.718;8.992;2023-04-25T10:25:57;1.20;;;1.20;;
16969;SDS011;8601;48.718;8.992;2023-04-25T10:28:25;1.17;;;1.17;;
16969;SDS011;8601;48.718;8.992;2023-04-25T10:30:56;1.40;;;1.40;;
16969;SDS011;8601;48.718;8.992;2023-04-25T10:33:32;1.40;;;1.40;;
16969;SDS011;8601;48.718;8.992;2023-04-25T10:36:08;1.40;;;1.30;;
16969;SDS011;8601;48.718;8.992;2023-04-25T10:38:35;1.70;;;1.60;;
16969;SDS011;8601;48.718;8.992;2023-04-25T10:41:04;1.50;;;1.40;;
16969;SDS011;8601;48.718;8.992;2023-04-25T10:43:33;1.70;;;1.60;;
16969;SDS011;8601;48.718;8.992;2023-04-25T10:46:18;1.53;;;1.43;;
16969;SDS011;8601;48.718;8.992;2023-04-25T10:48:48;1.40;;;1.40;;
16969;SDS011;8601;48.718;8.992;2023-04-25T10:51:18;1.97;;;1.70;;
16969;SDS011;8601;48.718;8.992;2023-04-25T10:53:48;2.07;;;1.87;;
16969;SDS011;8601;48.718;8.992;2023-04-25T10:56:33;1.60;;;1.50;;
16969;SDS011;8601;48.718;8.992;2023-04-25T10:59:04;1.60;;;1.50;;
16969;SDS011;8601;48.718;8.992;2023-04-25T11:01:35;1.57;;;1.47;;
16969;SDS011;8601;48.718;8.992;2023-04-25T11:04:03;1.67;;;1.40;;
16969;SDS011;8601;48.718;8.992;2023-04-25T11:06:34;1.60;;;1.50;;
16969;SDS011;8601;48.718;8.992;2023-04-25T11:09:11;1.33;;;1.30;;
16969;SDS011;8601;48.718;8.992;2023-04-25T11:11:54;1.60;;;1.50;;
16969;SDS011;8601;48.718;8.992;2023-04-25T11:14:21;1.30;;;1.30;;
16969;SDS011;8601;48.718;8.992;2023-04-25T11:16:52;2.47;;;2.30;;
16969;SDS011;8601;48.718;8.992;2023-04-25T11:19:22;2.70;;;2.27;;
16969;SDS011;8601;48.718;8.992;2023-04-25T11:21:49;3.00;;;2.80;;
16969;SDS011;8601;48.718;8.992;2023-04-25T11:24:16;3.53;;;3.23;;
16969;SDS011;8601;48.718;8.992;2023-04-25T11:26:46;4.23;;;3.60;;
16969;SDS011;8601;48.718;8.992;2023-04-25T11:29:15;4.07;;;3.47;;
16969;SDS011;8601;48.718;8.992;2023-04-25T11:31:42;4.30;;;3.90;;
16969;SDS011;8601;48.718;8.992;2023-04-25T11:34:16;3.77;;;3.47;;
16969;SDS011;8601;48.718;8.992;2023-04-25T11:36:44;3.67;;;3.37;;
16969;SDS011;8601;48.718;8.992;2023-04-25T11:39:14;4.17;;;3.87;;
16969;SDS011;8601;48.718;8.992;2023-04-25T11:41:41;3.47;;;3.07;;
16969;SDS011;8601;48.718;8.992;2023-04-25T11:46:43;3.90;;;3.47;;
16969;SDS011;8601;48.718;8.992;2023-04-25T11:49:10;3.60;;;3.30;;
16969;SDS011;8601;48.718;8.992;2023-04-25T11:51:38;3.43;;;3.17;;
16969;SDS011;8601;48.718;8.992;2023-04-25T11:54:05;3.33;;;3.03;;
16969;SDS011;8601;48.718;8.992;2023-04-25T11:56:33;2.90;;;2.70;;
16969;SDS011;8601;48.718;8.992;2023-04-25T11:59:00;3.30;;;3.00;;
16969;SDS011;8601;48.718;8.992;2023-04-25T12:01:30;3.60;;;3.30;;
16969;SDS011;8601;48.718;8.992;2023-04-25T12:03:58;3.03;;;2.83;;
16969;SDS011;8601;48.718;8.992;2023-04-25T12:06:36;3.30;;;3.00;;
16969;SDS011;8601;48.718;8.992;2023-04-25T12:09:06;3.53;;;3.23;;
16969;SDS011;8601;48.718;8.992;2023-04-25T12:11:40;3.90;;;3.50;;
16969;SDS011;8601;48.718;8.992;2023-04-25T12:14:07;6.67;;;6.07;;
16969;SDS011;8601;48.718;8.992;2023-04-25T12:16:42;5.87;;;5.33;;
16969;SDS011;8601;48.718;8.992;2023-04-25T12:19:13;11.87;;;10.40;;
16969;SDS011;8601;48.718;8.992;2023-04-25T12:21:40;5.23;;;4.73;;
16969;SDS011;8601;48.718;8.992;2023-04-25T12:24:11;4.67;;;4.23;;
16969;SDS011;8601;48.718;8.992;2023-04-25T12:26:46;4.47;;;3.70;;
16969;SDS011;8601;48.718;8.992;2023-04-25T12:29:15;5.73;;;4.67;;
16969;SDS011;8601;48.718;8.992;2023-04-25T12:31:44;5.60;;;5.00;;
16969;SDS011;8601;48.718;8.992;2023-04-25T12:34:11;5.40;;;4.90;;
16969;SDS011;8601;48.718;8.992;2023-04-25T12:36:38;6.97;;;5.67;;
16969;SDS011;8601;48.718;8.992;2023-04-25T12:39:05;5.10;;;4.60;;
16969;SDS011;8601;48.718;8.992;2023-04-25T12:41:33;6.20;;;5.60;;
16969;SDS011;8601;48.718;8.992;2023-04-25T12:44:00;6.10;;;5.53;;
16969;SDS011;8601;48.718;8.992;2023-04-25T12:46:27;11.63;;;5.20;;
16969;SDS011;8601;48.718;8.992;2023-04-25T12:48:55;6.23;;;5.63;;
16969;SDS011;8601;48.718;8.992;2023-04-25T12:51:22;6.30;;;5.70;;
16969;SDS011;8601;48.718;8.992;2023-04-25T12:53:50;7.10;;;6.50;;
16969;SDS011;8601;48.718;8.992;2023-04-25T12:56:17;6.73;;;6.00;;
16969;SDS011;8601;48.718;8.992;2023-04-25T12:58:45;7.13;;;5.93;;
16969;SDS011;8601;48.718;8.992;2023-04-25T13:01:13;6.77;;;6.03;;
16969;SDS011;8601;48.718;8.992;2023-04-25T13:03:40;6.93;;;6.00;;
16969;SDS011;8601;48.718;8.992;2023-04-25T13:06:08;7.40;;;6.70;;
16969;SDS011;8601;48.718;8.992;2023-04-25T13:08:35;7.20;;;6.03;;
16969;SDS011;8601;48.718;8.992;2023-04-25T13:11:03;6.63;;;5.80;;
16969;SDS011;8601;48.718;8.992;2023-04-25T13:13:30;6.93;;;5.80;;
16969;SDS011;8601;48.718;8.992;2023-04-25T13:15:59;6.87;;;6.17;;
16969;SDS011;8601;48.718;8.992;2023-04-25T13:18:26;8.07;;;7.27;;
16969;SDS011;8601;48.718;8.992;2023-04-25T13:20:53;8.03;;;6.77;;
16969;SDS011;8601;48.718;8.992;2023-04-25T13:23:22;8.63;;;6.80;;
16969;SDS011;8601;48.718;8.992;2023-04-25T13:25:51;7.87;;;7.10;;
16969;SDS011;8601;48.718;8.992;2023-04-25T13:28:18;7.63;;;6.80;;
16969;SDS011;8601;48.718;8.992;2023-04-25T13:30:46;10.13;;;6.40;;
16969;SDS011;8601;48.718;8.992;2023-04-25T13:33:13;8.37;;;7.57;;
16969;SDS011;8601;48.718;8.992;2023-04-25T13:35:40;8.77;;;6.97;;
16969;SDS011;8601;48.718;8.992;2023-04-25T13:38:08;7.13;;;6.53;;
16969;SDS011;8601;48.718;8.992;2023-04-25T13:40:36;8.37;;;7.37;;
16969;SDS011;8601;48.718;8.992;2023-04-25T13:43:03;7.37;;;6.63;;
16969;SDS011;8601;48.718;8.992;2023-04-25T13:45:31;7.37;;;6.57;;
16969;SDS011;8601;48.718;8.992;2023-04-25T13:47:58;7.70;;;7.00;;
16969;SDS011;8601;48.718;8.992;2023-04-25T13:50:25;7.80;;;6.97;;
16969;SDS011;8601;48.718;8.992;2023-04-25T13:52:53;9.40;;;7.70;;
16969;SDS011;8601;48.718;8.992;2023-04-25T13:55:20;9.20;;;8.20;;
16969;SDS011;8601;48.718;8.992;2023-04-25T13:57:48;9.43;;;7.87;;
16969;SDS011;8601;48.718;8.992;2023-04-25T14:00:18;9.47;;;7.83;;
16969;SDS011;8601;48.718;8.992;2023-04-25T14:02:46;7.57;;;6.87;;
16969;SDS011;8601;48.718;8.992;2023-04-25T14:05:14;7.97;;;7.10;;
16969;SDS011;8601;48.718;8.992;2023-04-25T14:07:40;7.90;;;7.00;;
16969;SDS011;8601;48.718;8.992;2023-04-25T14:10:08;7.70;;;6.50;;
16969;SDS011;8601;48.718;8.992;2023-04-25T14:12:36;8.27;;;6.63;;
16969;SDS011;8601;48.718;8.992;2023-04-25T14:15:05;7.00;;;6.30;;
16969;SDS011;8601;48.718;8.992;2023-04-25T14:17:32;7.03;;;6.43;;
16969;SDS011;8601;48.718;8.992;2023-04-25T14:19:59;8.03;;;5.53;;
16969;SDS011;8601;48.718;8.992;2023-04-25T14:22:26;6.07;;;5.47;;
16969;SDS011;8601;48.718;8.992;2023-04-25T14:24:53;6.27;;;5.67;;
16969;SDS011;8601;48.718;8.992;2023-04-25T14:27:20;7.70;;;5.30;;
16969;SDS011;8601;48.718;8.992;2023-04-25T14:29:47;5.80;;;5.30;;
16969;SDS011;8601;48.718;8.992;2023-04-25T14:32:15;6.80;;;5.70;;
16969;SDS011;8601;48.718;8.992;2023-04-25T14:34:42;6.50;;;5.83;;
16969;SDS011;8601;48.718;8.992;2023-04-25T14:37:09;8.07;;;5.27;;
16969;SDS011;8601;48.718;8.992;2023-04-25T14:39:36;6.47;;;5.43;;
16969;SDS011;8601;48.718;8.992;2023-04-25T14:42:03;5.30;;;4.80;;
16969;SDS011;8601;48.718;8.992;2023-04-25T14:44:30;4.97;;;4.47;;
16969;SDS011;8601;48.718;8.992;2023-04-25T14:46:57;5.10;;;4.70;;
16969;SDS011;8601;48.718;8.992;2023-04-25T14:49:25;4.83;;;4.03;;
16969;SDS011;8601;48.718;8.992;2023-04-25T14:51:53;4.40;;;4.00;;
16969;SDS011;8601;48.718;8.992;2023-04-25T14:54:20;5.50;;;4.70;;
16969;SDS011;8601;48.718;8.992;2023-04-25T14:56:47;4.97;;;4.43;;
16969;SDS011;8601;48.718;8.992;2023-04-25T14:59:16;5.23;;;3.80;;
16969;SDS011;8601;48.718;8.992;2023-04-25T15:01:42;4.63;;;3.77;;
16969;SDS011;8601;48.718;8.992;2023-04-25T15:04:10;3.37;;;3.07;;
16969;SDS011;8601;48.718;8.992;2023-04-25T15:06:38;3.40;;;3.10;;
16969;SDS011;8601;48.718;8.992;2023-04-25T15:09:05;3.23;;;2.93;;
16969;SDS011;8601;48.718;8.992;2023-04-25T15:11:35;2.93;;;2.73;;
16969;SDS011;8601;48.718;8.992;2023-04-25T15:14:02;3.70;;;3.03;;
16969;SDS011;8601;48.718;8.992;2023-04-25T15:16:29;2.73;;;2.53;;
16969;SDS011;8601;48.718;8.992;2023-04-25T15:18:56;3.50;;;2.93;;